sensor_id;sensor_type;location;lat;lon;timestamp;P1;durP1;ratioP1;P2;durP2;ratioP2
68379;SDS011;57711;53.196;19.638;2023-11-21T00:02:16;15.70;;;10.10;;
68379;SDS011;57711;53.196;19.638;2023-11-21T00:04:43;14.80;;;9.40;;
68379;SDS011;57711;53.196;19.638;2023-11-21T00:07:09;14.60;;;9.40;;
68379;SDS011;57711;53.196;19.638;2023-11-21T00:09:36;17.50;;;9.80;;
68379;SDS011;57711;53.196;19.638;2023-11-21T00:12:02;23.70;;;13.50;;
68379;SDS011;57711;53.196;19.638;2023-11-21T00:14:29;25.80;;;13.50;;
68379;SDS011;57711;53.196;19.638;2023-11-21T00:16:56;23.40;;;11.20;;
68379;SDS011;57711;53.196;19.638;2023-11-21T00:19:22;25.60;;;13.40;;
68379;SDS011;57711;53.196;19.638;2023-11-21T00:21:48;18.00;;;10.50;;
68379;SDS011;57711;53.196;19.638;2023-11-21T00:24:15;13.80;;;10.40;;
68379;SDS011;57711;53.196;19.638;2023-11-21T00:26:41;19.30;;;10.10;;
68379;SDS011;57711;53.196;19.638;2023-11-21T00:29:08;14.00;;;10.10;;
68379;SDS011;57711;53.196;19.638;2023-11-21T00:31:34;14.80;;;10.50;;
68379;SDS011;57711;53.196;19.638;2023-11-21T00:34:05;19.00;;;11.70;;
68379;SDS011;57711;53.196;19.638;2023-11-21T00:36:31;19.50;;;11.00;;
68379;SDS011;57711;53.196;19.638;2023-11-21T00:38:58;30.70;;;14.60;;
68379;SDS011;57711;53.196;19.638;2023-11-21T00:41:25;16.40;;;10.50;;
68379;SDS011;57711;53.196;19.638;2023-11-21T00:43:54;25.00;;;12.70;;
68379;SDS011;57711;53.196;19.638;2023-11-21T00:46:21;29.20;;;13.90;;
68379;SDS011;57711;53.196;19.638;2023-11-21T00:48:47;30.80;;;15.10;;
68379;SDS011;57711;53.196;19.638;2023-11-21T00:51:16;19.00;;;11.60;;
68379;SDS011;57711;53.196;19.638;2023-11-21T00:53:43;37.00;;;18.80;;
68379;SDS011;57711;53.196;19.638;2023-11-21T00:56:09;23.60;;;13.90;;
68379;SDS011;57711;53.196;19.638;2023-11-21T00:58:36;29.50;;;13.70;;
68379;SDS011;57711;53.196;19.638;2023-11-21T01:01:02;30.00;;;15.60;;
68379;SDS011;57711;53.196;19.638;2023-11-21T01:03:29;21.80;;;12.30;;
68379;SDS011;57711;53.196;19.638;2023-11-21T01:05:56;26.70;;;13.50;;
68379;SDS011;57711;53.196;19.638;2023-11-21T01:35:51;26.00;;;13.40;;
68379;SDS011;57711;53.196;19.638;2023-11-21T01:38:21;15.90;;;10.50;;
68379;SDS011;57711;53.196;19.638;2023-11-21T01:40:48;19.60;;;11.60;;
68379;SDS011;57711;53.196;19.638;2023-11-21T01:43:15;21.30;;;12.00;;
68379;SDS011;57711;53.196;19.638;2023-11-21T18:23:24;42.10;;;21.40;;
68379;SDS011;57711;53.196;19.638;2023-11-21T18:25:51;38.20;;;21.00;;
68379;SDS011;57711;53.196;19.638;2023-11-21T18:28:19;41.60;;;22.20;;
68379;SDS011;57711;53.196;19.638;2023-11-21T18:30:47;53.50;;;28.60;;
68379;SDS011;57711;53.196;19.638;2023-11-21T18:33:15;31.50;;;19.70;;
68379;SDS011;57711;53.196;19.638;2023-11-21T18:35:45;26.90;;;14.40;;
68379;SDS011;57711;53.196;19.638;2023-11-21T18:38:12;21.50;;;12.40;;
68379;SDS011;57711;53.196;19.638;2023-11-21T18:40:39;27.30;;;14.10;;
68379;SDS011;57711;53.196;19.638;2023-11-21T18:43:07;19.90;;;11.30;;
68379;SDS011;57711;53.196;19.638;2023-11-21T18:45:34;21.90;;;14.30;;
68379;SDS011;57711;53.196;19.638;2023-11-21T18:48:02;21.90;;;13.20;;
68379;SDS011;57711;53.196;19.638;2023-11-21T18:50:31;18.20;;;11.80;;
68379;SDS011;57711;53.196;19.638;2023-11-21T18:52:58;22.40;;;11.90;;
68379;SDS011;57711;53.196;19.638;2023-11-21T18:55:26;25.10;;;13.40;;
68379;SDS011;57711;53.196;19.638;2023-11-21T18:57:54;20.90;;;12.80;;
68379;SDS011;57711;53.196;19.638;2023-11-21T19:00:22;24.30;;;14.30;;
68379;SDS011;57711;53.196;19.638;2023-11-21T19:02:49;24.30;;;15.10;;
68379;SDS011;57711;53.196;19.638;2023-11-21T19:05:17;19.70;;;11.80;;
68379;SDS011;57711;53.196;19.638;2023-11-21T19:07:44;22.80;;;11.30;;
68379;SDS011;57711;53.196;19.638;2023-11-21T19:10:11;15.80;;;10.70;;
68379;SDS011;57711;53.196;19.638;2023-11-21T19:12:39;18.00;;;10.30;;
68379;SDS011;57711;53.196;19.638;2023-11-21T19:15:07;25.30;;;15.70;;
68379;SDS011;57711;53.196;19.638;2023-11-21T19:17:43;24.90;;;16.20;;
68379;SDS011;57711;53.196;19.638;2023-11-21T19:20:11;39.10;;;23.00;;
68379;SDS011;57711;53.196;19.638;2023-11-21T19:22:39;39.80;;;24.00;;
68379;SDS011;57711;53.196;19.638;2023-11-21T19:25:06;34.60;;;19.40;;
68379;SDS011;57711;53.196;19.638;2023-11-21T19:27:35;49.80;;;22.90;;
68379;SDS011;57711;53.196;19.638;2023-11-21T19:30:02;71.50;;;38.30;;
68379;SDS011;57711;53.196;19.638;2023-11-21T19:32:31;67.40;;;37.00;;
68379;SDS011;57711;53.196;19.638;2023-11-21T19:35:00;51.70;;;26.70;;
68379;SDS011;57711;53.196;19.638;2023-11-21T19:37:28;71.30;;;33.30;;
68379;SDS011;57711;53.196;19.638;2023-11-21T19:39:55;69.80;;;31.00;;
68379;SDS011;57711;53.196;19.638;2023-11-21T19:42:26;76.30;;;37.90;;
68379;SDS011;57711;53.196;19.638;2023-11-21T19:44:54;71.00;;;33.80;;
68379;SDS011;57711;53.196;19.638;2023-11-21T19:47:23;57.30;;;28.80;;
68379;SDS011;57711;53.196;19.638;2023-11-21T19:49:51;82.20;;;37.30;;
68379;SDS011;57711;53.196;19.638;2023-11-21T19:52:20;104.80;;;33.70;;
68379;SDS011;57711;53.196;19.638;2023-11-21T19:54:48;94.40;;;35.30;;
68379;SDS011;57711;53.196;19.638;2023-11-21T19:57:16;58.00;;;23.10;;
68379;SDS011;57711;53.196;19.638;2023-11-21T19:59:43;36.30;;;21.20;;
68379;SDS011;57711;53.196;19.638;2023-11-21T20:02:12;29.20;;;16.40;;
68379;SDS011;57711;53.196;19.638;2023-11-21T20:04:39;20.30;;;12.10;;
68379;SDS011;57711;53.196;19.638;2023-11-21T20:07:09;47.80;;;16.10;;
68379;SDS011;57711;53.196;19.638;2023-11-21T20:09:37;120.70;;;25.40;;
68379;SDS011;57711;53.196;19.638;2023-11-21T20:12:05;113.50;;;28.30;;
68379;SDS011;57711;53.196;19.638;2023-11-21T20:14:33;45.40;;;16.70;;
68379;SDS011;57711;53.196;19.638;2023-11-21T20:17:01;92.00;;;31.60;;
68379;SDS011;57711;53.196;19.638;2023-11-21T20:19:29;53.30;;;33.80;;
68379;SDS011;57711;53.196;19.638;2023-11-21T20:21:57;25.60;;;14.60;;
68379;SDS011;57711;53.196;19.638;2023-11-21T20:24:24;27.20;;;11.20;;
68379;SDS011;57711;53.196;19.638;2023-11-21T20:26:52;164.20;;;40.80;;
68379;SDS011;57711;53.196;19.638;2023-11-21T20:29:20;190.50;;;33.60;;
68379;SDS011;57711;53.196;19.638;2023-11-21T20:31:49;137.70;;;32.70;;
68379;SDS011;57711;53.196;19.638;2023-11-21T20:34:17;69.00;;;26.40;;
68379;SDS011;57711;53.196;19.638;2023-11-21T20:36:46;27.90;;;12.60;;
68379;SDS011;57711;53.196;19.638;2023-11-21T20:39:15;34.50;;;18.60;;
68379;SDS011;57711;53.196;19.638;2023-11-21T20:41:43;28.30;;;15.80;;
68379;SDS011;57711;53.196;19.638;2023-11-21T20:44:11;32.90;;;16.20;;
68379;SDS011;57711;53.196;19.638;2023-11-21T20:46:39;38.80;;;17.20;;
68379;SDS011;57711;53.196;19.638;2023-11-21T20:49:10;17.80;;;10.20;;
68379;SDS011;57711;53.196;19.638;2023-11-21T20:51:39;93.00;;;25.80;;
68379;SDS011;57711;53.196;19.638;2023-11-21T20:54:07;94.30;;;31.80;;
68379;SDS011;57711;53.196;19.638;2023-11-21T20:56:35;65.70;;;26.30;;
68379;SDS011;57711;53.196;19.638;2023-11-21T20:59:02;34.60;;;15.50;;
68379;SDS011;57711;53.196;19.638;2023-11-21T21:01:33;21.20;;;9.40;;
68379;SDS011;57711;53.196;19.638;2023-11-21T21:04:01;15.20;;;9.10;;
68379;SDS011;57711;53.196;19.638;2023-11-21T21:06:29;20.20;;;9.90;;
68379;SDS011;57711;53.196;19.638;2023-11-21T21:08:57;18.90;;;9.70;;
68379;SDS011;57711;53.196;19.638;2023-11-21T21:11:28;24.20;;;12.20;;
68379;SDS011;57711;53.196;19.638;2023-11-21T21:13:58;28.50;;;13.50;;
68379;SDS011;57711;53.196;19.638;2023-11-21T21:16:26;26.10;;;14.50;;
68379;SDS011;57711;53.196;19.638;2023-11-21T21:18:53;40.10;;;21.30;;
68379;SDS011;57711;53.196;19.638;2023-11-21T21:21:22;60.50;;;34.40;;
68379;SDS011;57711;53.196;19.638;2023-11-21T21:23:49;52.40;;;32.30;;
68379;SDS011;57711;53.196;19.638;2023-11-21T21:26:17;32.30;;;21.80;;
68379;SDS011;57711;53.196;19.638;2023-11-21T21:28:46;42.50;;;24.50;;
68379;SDS011;57711;53.196;19.638;2023-11-21T21:31:14;68.10;;;35.40;;
68379;SDS011;57711;53.196;19.638;2023-11-21T21:33:42;73.40;;;34.10;;
68379;SDS011;57711;53.196;19.638;2023-11-21T21:36:12;63.40;;;31.00;;
68379;SDS011;57711;53.196;19.638;2023-11-21T21:38:40;50.00;;;25.70;;
68379;SDS011;57711;53.196;19.638;2023-11-21T21:41:10;34.70;;;19.20;;
68379;SDS011;57711;53.196;19.638;2023-11-21T21:43:40;35.90;;;21.00;;
68379;SDS011;57711;53.196;19.638;2023-11-21T21:46:07;34.80;;;18.90;;
68379;SDS011;57711;53.196;19.638;2023-11-21T21:48:35;31.10;;;16.40;;
68379;SDS011;57711;53.196;19.638;2023-11-21T21:51:02;34.50;;;17.20;;
68379;SDS011;57711;53.196;19.638;2023-11-21T21:53:30;34.50;;;18.30;;
68379;SDS011;57711;53.196;19.638;2023-11-21T21:55:57;36.30;;;19.50;;
68379;SDS011;57711;53.196;19.638;2023-11-21T21:58:24;28.30;;;16.00;;
68379;SDS011;57711;53.196;19.638;2023-11-21T22:00:53;142.60;;;46.20;;
68379;SDS011;57711;53.196;19.638;2023-11-21T22:03:21;364.30;;;87.90;;
68379;SDS011;57711;53.196;19.638;2023-11-21T22:05:49;205.70;;;58.20;;
68379;SDS011;57711;53.196;19.638;2023-11-21T22:08:16;83.80;;;30.80;;
68379;SDS011;57711;53.196;19.638;2023-11-21T22:10:44;70.40;;;25.30;;
68379;SDS011;57711;53.196;19.638;2023-11-21T22:13:11;73.10;;;27.70;;
68379;SDS011;57711;53.196;19.638;2023-11-21T22:15:38;287.90;;;88.50;;
68379;SDS011;57711;53.196;19.638;2023-11-21T22:18:07;93.70;;;35.90;;
68379;SDS011;57711;53.196;19.638;2023-11-21T22:20:35;47.00;;;21.30;;
68379;SDS011;57711;53.196;19.638;2023-11-21T22:23:02;32.20;;;14.30;;
68379;SDS011;57711;53.196;19.638;2023-11-21T22:25:30;32.00;;;16.10;;
68379;SDS011;57711;53.196;19.638;2023-11-21T22:27:57;26.00;;;13.50;;
68379;SDS011;57711;53.196;19.638;2023-11-21T22:30:27;19.60;;;11.20;;
68379;SDS011;57711;53.196;19.638;2023-11-21T23:05:22;15.90;;;10.10;;
68379;SDS011;57711;53.196;19.638;2023-11-21T23:07:49;25.90;;;11.60;;
68379;SDS011;57711;53.196;19.638;2023-11-21T23:10:17;21.90;;;11.80;;
68379;SDS011;57711;53.196;19.638;2023-11-21T23:12:45;20.90;;;11.80;;
68379;SDS011;57711;53.196;19.638;2023-11-21T23:15:12;19.60;;;10.60;;
68379;SDS011;57711;53.196;19.638;2023-11-21T23:17:39;24.00;;;13.00;;
68379;SDS011;57711;53.196;19.638;2023-11-21T23:20:07;22.90;;;14.00;;
68379;SDS011;57711;53.196;19.638;2023-11-21T23:22:38;27.00;;;13.80;;
68379;SDS011;57711;53.196;19.638;2023-11-21T23:25:07;28.30;;;17.20;;
68379;SDS011;57711;53.196;19.638;2023-11-21T23:27:35;26.50;;;15.40;;
68379;SDS011;57711;53.196;19.638;2023-11-21T23:30:02;29.00;;;14.00;;
68379;SDS011;57711;53.196;19.638;2023-11-21T23:32:30;30.40;;;15.10;;
68379;SDS011;57711;53.196;19.638;2023-11-21T23:34:57;31.90;;;16.00;;
68379;SDS011;57711;53.196;19.638;2023-11-21T23:37:24;32.00;;;15.50;;
68379;SDS011;57711;53.196;19.638;2023-11-21T23:39:51;32.00;;;17.40;;
68379;SDS011;57711;53.196;19.638;2023-11-21T23:42:18;30.20;;;16.10;;
68379;SDS011;57711;53.196;19.638;2023-11-21T23:44:46;31.70;;;15.70;;
68379;SDS011;57711;53.196;19.638;2023-11-21T23:47:16;26.30;;;14.20;;
68379;SDS011;57711;53.196;19.638;2023-11-21T23:49:44;30.50;;;15.30;;
68379;SDS011;57711;53.196;19.638;2023-11-21T23:52:11;23.20;;;13.00;;
